sensor_id;sensor_type;location;lat;lon;timestamp;P1;durP1;ratioP1;P2;durP2;ratioP2
70270;SDS011;57680;54.292;18.598;2023-09-18T00:00:37;28.50;;;13.77;;
70270;SDS011;57680;54.292;18.598;2023-09-18T00:03:02;34.80;;;15.27;;
70270;SDS011;57680;54.292;18.598;2023-09-18T00:05:28;30.73;;;14.53;;
70270;SDS011;57680;54.292;18.598;2023-09-18T00:07:53;31.03;;;14.33;;
70270;SDS011;57680;54.292;18.598;2023-09-18T00:10:18;32.77;;;15.10;;
70270;SDS011;57680;54.292;18.598;2023-09-18T00:12:44;25.87;;;12.90;;
70270;SDS011;57680;54.292;18.598;2023-09-18T00:15:09;30.27;;;13.80;;
70270;SDS011;57680;54.292;18.598;2023-09-18T00:17:35;31.33;;;14.47;;
70270;SDS011;57680;54.292;18.598;2023-09-18T00:20:01;29.58;;;14.50;;
70270;SDS011;57680;54.292;18.598;2023-09-18T00:22:26;28.13;;;14.07;;
70270;SDS011;57680;54.292;18.598;2023-09-18T00:24:52;30.47;;;14.77;;
70270;SDS011;57680;54.292;18.598;2023-09-18T00:27:17;30.40;;;14.70;;
70270;SDS011;57680;54.292;18.598;2023-09-18T00:29:42;28.73;;;14.37;;
70270;SDS011;57680;54.292;18.598;2023-09-18T00:32:08;32.77;;;15.37;;
70270;SDS011;57680;54.292;18.598;2023-09-18T00:34:33;29.73;;;14.03;;
70270;SDS011;57680;54.292;18.598;2023-09-18T00:36:59;30.17;;;14.07;;
70270;SDS011;57680;54.292;18.598;2023-09-18T00:39:25;28.37;;;14.63;;
70270;SDS011;57680;54.292;18.598;2023-09-18T00:41:51;29.25;;;14.07;;
70270;SDS011;57680;54.292;18.598;2023-09-18T00:44:16;30.43;;;13.60;;
70270;SDS011;57680;54.292;18.598;2023-09-18T00:46:41;30.47;;;14.07;;
70270;SDS011;57680;54.292;18.598;2023-09-18T00:49:08;31.00;;;14.05;;
70270;SDS011;57680;54.292;18.598;2023-09-18T00:51:33;29.33;;;14.03;;
70270;SDS011;57680;54.292;18.598;2023-09-18T00:53:58;34.23;;;14.70;;
70270;SDS011;57680;54.292;18.598;2023-09-18T00:56:24;27.58;;;13.48;;
70270;SDS011;57680;54.292;18.598;2023-09-18T00:58:49;28.57;;;13.67;;
70270;SDS011;57680;54.292;18.598;2023-09-18T01:01:15;31.43;;;14.50;;
70270;SDS011;57680;54.292;18.598;2023-09-18T01:03:43;29.20;;;14.98;;
70270;SDS011;57680;54.292;18.598;2023-09-18T01:06:09;29.53;;;14.67;;
70270;SDS011;57680;54.292;18.598;2023-09-18T01:08:34;29.40;;;13.57;;
70270;SDS011;57680;54.292;18.598;2023-09-18T01:11:02;28.63;;;14.13;;
70270;SDS011;57680;54.292;18.598;2023-09-18T01:13:37;28.70;;;14.57;;
70270;SDS011;57680;54.292;18.598;2023-09-18T01:16:08;29.08;;;14.20;;
70270;SDS011;57680;54.292;18.598;2023-09-18T01:18:38;29.23;;;14.70;;
70270;SDS011;57680;54.292;18.598;2023-09-18T01:21:03;30.73;;;14.10;;
70270;SDS011;57680;54.292;18.598;2023-09-18T01:23:28;30.50;;;13.73;;
70270;SDS011;57680;54.292;18.598;2023-09-18T01:25:54;28.27;;;13.77;;
70270;SDS011;57680;54.292;18.598;2023-09-18T01:28:19;30.13;;;14.37;;
70270;SDS011;57680;54.292;18.598;2023-09-18T01:30:44;37.57;;;16.50;;
70270;SDS011;57680;54.292;18.598;2023-09-18T01:33:10;37.90;;;18.67;;
70270;SDS011;57680;54.292;18.598;2023-09-18T01:35:35;43.37;;;19.70;;
70270;SDS011;57680;54.292;18.598;2023-09-18T01:38:02;37.80;;;17.58;;
70270;SDS011;57680;54.292;18.598;2023-09-18T01:40:27;31.90;;;15.82;;
70270;SDS011;57680;54.292;18.598;2023-09-18T01:42:53;36.70;;;16.00;;
70270;SDS011;57680;54.292;18.598;2023-09-18T01:45:19;36.27;;;16.70;;
70270;SDS011;57680;54.292;18.598;2023-09-18T01:47:44;32.00;;;15.32;;
70270;SDS011;57680;54.292;18.598;2023-09-18T01:50:10;30.57;;;14.63;;
70270;SDS011;57680;54.292;18.598;2023-09-18T01:52:36;31.00;;;14.33;;
70270;SDS011;57680;54.292;18.598;2023-09-18T01:55:01;31.77;;;15.50;;
70270;SDS011;57680;54.292;18.598;2023-09-18T01:57:27;30.07;;;14.17;;
70270;SDS011;57680;54.292;18.598;2023-09-18T01:59:52;33.57;;;15.80;;
70270;SDS011;57680;54.292;18.598;2023-09-18T02:02:18;32.07;;;14.63;;
70270;SDS011;57680;54.292;18.598;2023-09-18T02:04:43;31.23;;;14.70;;
70270;SDS011;57680;54.292;18.598;2023-09-18T02:07:09;30.90;;;14.63;;
70270;SDS011;57680;54.292;18.598;2023-09-18T02:09:34;31.17;;;14.57;;
70270;SDS011;57680;54.292;18.598;2023-09-18T02:11:59;32.83;;;14.20;;
70270;SDS011;57680;54.292;18.598;2023-09-18T02:14:25;33.45;;;14.80;;
70270;SDS011;57680;54.292;18.598;2023-09-18T02:16:50;31.50;;;15.90;;
70270;SDS011;57680;54.292;18.598;2023-09-18T02:19:15;33.80;;;15.30;;
70270;SDS011;57680;54.292;18.598;2023-09-18T02:21:41;31.23;;;14.93;;
70270;SDS011;57680;54.292;18.598;2023-09-18T02:24:06;29.10;;;13.93;;
70270;SDS011;57680;54.292;18.598;2023-09-18T02:26:32;31.90;;;14.63;;
70270;SDS011;57680;54.292;18.598;2023-09-18T02:29:02;31.63;;;13.77;;
70270;SDS011;57680;54.292;18.598;2023-09-18T02:31:30;31.75;;;15.10;;
70270;SDS011;57680;54.292;18.598;2023-09-18T02:33:55;32.53;;;15.20;;
70270;SDS011;57680;54.292;18.598;2023-09-18T02:36:20;32.13;;;14.67;;
70270;SDS011;57680;54.292;18.598;2023-09-18T02:38:46;30.57;;;14.43;;
70270;SDS011;57680;54.292;18.598;2023-09-18T02:41:11;30.67;;;14.37;;
70270;SDS011;57680;54.292;18.598;2023-09-18T02:43:36;34.28;;;15.45;;
70270;SDS011;57680;54.292;18.598;2023-09-18T02:46:02;33.70;;;14.57;;
70270;SDS011;57680;54.292;18.598;2023-09-18T02:48:27;31.00;;;14.70;;
70270;SDS011;57680;54.292;18.598;2023-09-18T02:50:52;33.63;;;14.50;;
70270;SDS011;57680;54.292;18.598;2023-09-18T02:53:18;33.03;;;14.87;;
70270;SDS011;57680;54.292;18.598;2023-09-18T02:55:50;32.65;;;14.13;;
70270;SDS011;57680;54.292;18.598;2023-09-18T02:58:16;29.25;;;14.10;;
70270;SDS011;57680;54.292;18.598;2023-09-18T03:00:42;31.63;;;14.70;;
70270;SDS011;57680;54.292;18.598;2023-09-18T03:03:07;30.88;;;14.55;;
70270;SDS011;57680;54.292;18.598;2023-09-18T03:05:33;32.40;;;14.43;;
70270;SDS011;57680;54.292;18.598;2023-09-18T03:07:58;28.57;;;14.13;;
70270;SDS011;57680;54.292;18.598;2023-09-18T03:10:23;29.50;;;13.93;;
70270;SDS011;57680;54.292;18.598;2023-09-18T03:12:49;33.10;;;14.60;;
70270;SDS011;57680;54.292;18.598;2023-09-18T03:15:14;32.27;;;14.20;;
70270;SDS011;57680;54.292;18.598;2023-09-18T03:17:39;31.63;;;14.67;;
70270;SDS011;57680;54.292;18.598;2023-09-18T03:20:05;29.33;;;15.07;;
70270;SDS011;57680;54.292;18.598;2023-09-18T03:22:30;32.97;;;14.80;;
70270;SDS011;57680;54.292;18.598;2023-09-18T03:24:56;30.87;;;14.27;;
70270;SDS011;57680;54.292;18.598;2023-09-18T03:27:21;31.03;;;14.23;;
70270;SDS011;57680;54.292;18.598;2023-09-18T03:29:46;33.57;;;15.03;;
70270;SDS011;57680;54.292;18.598;2023-09-18T03:32:12;33.53;;;14.33;;
70270;SDS011;57680;54.292;18.598;2023-09-18T03:34:37;37.40;;;15.40;;
70270;SDS011;57680;54.292;18.598;2023-09-18T03:37:03;33.23;;;14.60;;
70270;SDS011;57680;54.292;18.598;2023-09-18T03:39:28;33.20;;;14.63;;
70270;SDS011;57680;54.292;18.598;2023-09-18T03:41:54;30.83;;;14.87;;
70270;SDS011;57680;54.292;18.598;2023-09-18T03:44:19;31.90;;;16.07;;
70270;SDS011;57680;54.292;18.598;2023-09-18T03:46:44;38.10;;;15.73;;
70270;SDS011;57680;54.292;18.598;2023-09-18T03:49:10;32.30;;;14.90;;
70270;SDS011;57680;54.292;18.598;2023-09-18T03:51:35;34.03;;;15.47;;
70270;SDS011;57680;54.292;18.598;2023-09-18T03:54:00;35.78;;;15.65;;
70270;SDS011;57680;54.292;18.598;2023-09-18T03:56:26;31.57;;;14.37;;
70270;SDS011;57680;54.292;18.598;2023-09-18T03:58:51;31.37;;;14.87;;
70270;SDS011;57680;54.292;18.598;2023-09-18T04:01:16;32.73;;;15.07;;
70270;SDS011;57680;54.292;18.598;2023-09-18T04:03:41;36.80;;;16.30;;
70270;SDS011;57680;54.292;18.598;2023-09-18T04:06:07;37.77;;;16.90;;
70270;SDS011;57680;54.292;18.598;2023-09-18T04:08:32;41.93;;;19.37;;
70270;SDS011;57680;54.292;18.598;2023-09-18T04:10:57;43.78;;;20.27;;
70270;SDS011;57680;54.292;18.598;2023-09-18T04:13:23;43.20;;;18.87;;
70270;SDS011;57680;54.292;18.598;2023-09-18T04:15:49;43.03;;;18.85;;
70270;SDS011;57680;54.292;18.598;2023-09-18T04:18:14;44.93;;;19.37;;
70270;SDS011;57680;54.292;18.598;2023-09-18T04:20:40;44.33;;;19.40;;
70270;SDS011;57680;54.292;18.598;2023-09-18T04:23:18;42.53;;;19.30;;
70270;SDS011;57680;54.292;18.598;2023-09-18T04:25:48;40.75;;;17.73;;
70270;SDS011;57680;54.292;18.598;2023-09-18T04:28:14;41.40;;;18.67;;
70270;SDS011;57680;54.292;18.598;2023-09-18T04:30:41;39.90;;;18.08;;
70270;SDS011;57680;54.292;18.598;2023-09-18T04:33:06;41.50;;;18.23;;
70270;SDS011;57680;54.292;18.598;2023-09-18T04:35:32;45.63;;;18.95;;
70270;SDS011;57680;54.292;18.598;2023-09-18T04:37:58;39.30;;;18.17;;
70270;SDS011;57680;54.292;18.598;2023-09-18T04:40:24;42.42;;;19.23;;
70270;SDS011;57680;54.292;18.598;2023-09-18T04:42:50;41.97;;;18.13;;
70270;SDS011;57680;54.292;18.598;2023-09-18T04:45:15;43.63;;;18.10;;
70270;SDS011;57680;54.292;18.598;2023-09-18T04:47:40;36.73;;;17.80;;
70270;SDS011;57680;54.292;18.598;2023-09-18T04:50:06;39.95;;;17.65;;
70270;SDS011;57680;54.292;18.598;2023-09-18T04:52:31;35.27;;;16.43;;
70270;SDS011;57680;54.292;18.598;2023-09-18T04:54:57;35.97;;;16.27;;
70270;SDS011;57680;54.292;18.598;2023-09-18T04:57:22;34.93;;;16.17;;
70270;SDS011;57680;54.292;18.598;2023-09-18T04:59:47;32.75;;;15.57;;
70270;SDS011;57680;54.292;18.598;2023-09-18T05:02:13;31.90;;;14.80;;
70270;SDS011;57680;54.292;18.598;2023-09-18T05:04:38;30.80;;;14.57;;
70270;SDS011;57680;54.292;18.598;2023-09-18T05:07:03;26.67;;;13.80;;
70270;SDS011;57680;54.292;18.598;2023-09-18T05:09:29;28.17;;;14.50;;
70270;SDS011;57680;54.292;18.598;2023-09-18T05:11:54;24.07;;;13.00;;
70270;SDS011;57680;54.292;18.598;2023-09-18T05:14:19;24.53;;;13.00;;
70270;SDS011;57680;54.292;18.598;2023-09-18T05:16:45;24.37;;;12.53;;
70270;SDS011;57680;54.292;18.598;2023-09-18T05:19:10;23.80;;;12.10;;
70270;SDS011;57680;54.292;18.598;2023-09-18T05:21:35;23.63;;;11.97;;
70270;SDS011;57680;54.292;18.598;2023-09-18T05:24:01;23.00;;;11.77;;
70270;SDS011;57680;54.292;18.598;2023-09-18T05:26:26;21.40;;;11.50;;
70270;SDS011;57680;54.292;18.598;2023-09-18T05:28:51;22.07;;;11.27;;
70270;SDS011;57680;54.292;18.598;2023-09-18T05:31:17;21.07;;;11.20;;
70270;SDS011;57680;54.292;18.598;2023-09-18T05:33:42;20.43;;;10.47;;
70270;SDS011;57680;54.292;18.598;2023-09-18T05:36:07;20.33;;;11.10;;
70270;SDS011;57680;54.292;18.598;2023-09-18T05:38:33;21.07;;;11.03;;
70270;SDS011;57680;54.292;18.598;2023-09-18T05:40:58;20.30;;;10.90;;
70270;SDS011;57680;54.292;18.598;2023-09-18T05:43:23;18.80;;;11.00;;
70270;SDS011;57680;54.292;18.598;2023-09-18T05:45:49;17.97;;;10.53;;
70270;SDS011;57680;54.292;18.598;2023-09-18T05:48:14;20.25;;;10.85;;
70270;SDS011;57680;54.292;18.598;2023-09-18T05:50:39;19.53;;;10.30;;
70270;SDS011;57680;54.292;18.598;2023-09-18T05:53:04;17.47;;;9.40;;
70270;SDS011;57680;54.292;18.598;2023-09-18T05:55:30;17.33;;;9.57;;
70270;SDS011;57680;54.292;18.598;2023-09-18T05:57:57;17.67;;;9.82;;
70270;SDS011;57680;54.292;18.598;2023-09-18T06:00:22;18.03;;;9.30;;
70270;SDS011;57680;54.292;18.598;2023-09-18T06:02:47;18.07;;;9.23;;
70270;SDS011;57680;54.292;18.598;2023-09-18T06:05:13;17.93;;;9.77;;
70270;SDS011;57680;54.292;18.598;2023-09-18T06:07:38;18.15;;;9.88;;
70270;SDS011;57680;54.292;18.598;2023-09-18T06:10:04;17.23;;;8.83;;
70270;SDS011;57680;54.292;18.598;2023-09-18T06:12:30;16.50;;;9.32;;
70270;SDS011;57680;54.292;18.598;2023-09-18T06:14:55;15.03;;;9.13;;
70270;SDS011;57680;54.292;18.598;2023-09-18T06:17:20;18.10;;;9.83;;
70270;SDS011;57680;54.292;18.598;2023-09-18T06:19:46;18.03;;;9.10;;
70270;SDS011;57680;54.292;18.598;2023-09-18T06:22:12;16.70;;;9.20;;
70270;SDS011;57680;54.292;18.598;2023-09-18T06:24:38;18.83;;;9.33;;
70270;SDS011;57680;54.292;18.598;2023-09-18T06:27:03;19.67;;;9.52;;
70270;SDS011;57680;54.292;18.598;2023-09-18T06:29:29;17.83;;;9.17;;
70270;SDS011;57680;54.292;18.598;2023-09-18T06:31:54;17.00;;;9.50;;
70270;SDS011;57680;54.292;18.598;2023-09-18T06:34:20;19.43;;;8.73;;
70270;SDS011;57680;54.292;18.598;2023-09-18T06:36:45;18.10;;;9.97;;
70270;SDS011;57680;54.292;18.598;2023-09-18T06:39:10;21.83;;;10.13;;
70270;SDS011;57680;54.292;18.598;2023-09-18T06:41:36;20.07;;;10.23;;
70270;SDS011;57680;54.292;18.598;2023-09-18T06:44:01;20.17;;;9.73;;
70270;SDS011;57680;54.292;18.598;2023-09-18T06:46:27;16.75;;;9.68;;
70270;SDS011;57680;54.292;18.598;2023-09-18T06:48:52;17.73;;;10.13;;
70270;SDS011;57680;54.292;18.598;2023-09-18T06:51:17;19.03;;;10.20;;
70270;SDS011;57680;54.292;18.598;2023-09-18T06:53:43;21.77;;;11.30;;
70270;SDS011;57680;54.292;18.598;2023-09-18T06:56:09;20.95;;;11.15;;
70270;SDS011;57680;54.292;18.598;2023-09-18T06:58:34;20.87;;;11.77;;
70270;SDS011;57680;54.292;18.598;2023-09-18T07:01:00;23.38;;;11.02;;
70270;SDS011;57680;54.292;18.598;2023-09-18T07:03:25;20.50;;;12.20;;
70270;SDS011;57680;54.292;18.598;2023-09-18T07:05:50;22.33;;;12.20;;
70270;SDS011;57680;54.292;18.598;2023-09-18T07:08:15;21.93;;;11.80;;
70270;SDS011;57680;54.292;18.598;2023-09-18T07:10:41;22.73;;;11.40;;
70270;SDS011;57680;54.292;18.598;2023-09-18T07:13:06;19.53;;;11.03;;
70270;SDS011;57680;54.292;18.598;2023-09-18T07:15:31;21.70;;;10.67;;
70270;SDS011;57680;54.292;18.598;2023-09-18T07:17:58;20.03;;;10.53;;
70270;SDS011;57680;54.292;18.598;2023-09-18T07:20:23;19.35;;;11.18;;
70270;SDS011;57680;54.292;18.598;2023-09-18T07:22:48;19.50;;;10.50;;
70270;SDS011;57680;54.292;18.598;2023-09-18T07:25:14;19.83;;;10.40;;
70270;SDS011;57680;54.292;18.598;2023-09-18T07:27:39;24.25;;;10.52;;
70270;SDS011;57680;54.292;18.598;2023-09-18T07:30:05;19.13;;;10.57;;
70270;SDS011;57680;54.292;18.598;2023-09-18T07:32:31;21.20;;;11.48;;
70270;SDS011;57680;54.292;18.598;2023-09-18T07:34:56;18.07;;;10.30;;
70270;SDS011;57680;54.292;18.598;2023-09-18T07:37:21;19.47;;;10.40;;
70270;SDS011;57680;54.292;18.598;2023-09-18T07:39:47;19.20;;;10.53;;
70270;SDS011;57680;54.292;18.598;2023-09-18T07:42:12;18.47;;;10.23;;
70270;SDS011;57680;54.292;18.598;2023-09-18T07:44:37;18.77;;;10.33;;
70270;SDS011;57680;54.292;18.598;2023-09-18T07:47:03;18.00;;;10.27;;
70270;SDS011;57680;54.292;18.598;2023-09-18T07:49:28;17.75;;;10.60;;
70270;SDS011;57680;54.292;18.598;2023-09-18T07:51:53;20.83;;;9.93;;
70270;SDS011;57680;54.292;18.598;2023-09-18T07:54:19;19.13;;;10.00;;
70270;SDS011;57680;54.292;18.598;2023-09-18T07:56:44;18.53;;;10.03;;
70270;SDS011;57680;54.292;18.598;2023-09-18T07:59:09;19.47;;;9.47;;
70270;SDS011;57680;54.292;18.598;2023-09-18T08:01:35;18.43;;;9.90;;
70270;SDS011;57680;54.292;18.598;2023-09-18T08:04:00;15.97;;;9.43;;
70270;SDS011;57680;54.292;18.598;2023-09-18T08:06:25;16.60;;;9.93;;
70270;SDS011;57680;54.292;18.598;2023-09-18T08:08:51;16.95;;;9.95;;
70270;SDS011;57680;54.292;18.598;2023-09-18T08:11:16;16.57;;;9.87;;
70270;SDS011;57680;54.292;18.598;2023-09-18T08:13:41;18.90;;;10.50;;
70270;SDS011;57680;54.292;18.598;2023-09-18T08:16:07;17.20;;;9.67;;
70270;SDS011;57680;54.292;18.598;2023-09-18T08:18:32;17.83;;;10.63;;
70270;SDS011;57680;54.292;18.598;2023-09-18T08:20:57;16.30;;;9.47;;
70270;SDS011;57680;54.292;18.598;2023-09-18T08:23:23;16.20;;;9.50;;
70270;SDS011;57680;54.292;18.598;2023-09-18T08:25:49;16.60;;;9.25;;
70270;SDS011;57680;54.292;18.598;2023-09-18T08:28:14;16.33;;;9.13;;
70270;SDS011;57680;54.292;18.598;2023-09-18T08:30:40;16.10;;;9.20;;
70270;SDS011;57680;54.292;18.598;2023-09-18T08:33:05;15.73;;;9.30;;
70270;SDS011;57680;54.292;18.598;2023-09-18T08:35:31;16.70;;;9.02;;
70270;SDS011;57680;54.292;18.598;2023-09-18T08:37:56;13.90;;;8.73;;
70270;SDS011;57680;54.292;18.598;2023-09-18T08:40:22;15.13;;;8.93;;
70270;SDS011;57680;54.292;18.598;2023-09-18T08:42:48;15.18;;;8.63;;
70270;SDS011;57680;54.292;18.598;2023-09-18T08:45:19;14.82;;;9.10;;
70270;SDS011;57680;54.292;18.598;2023-09-18T08:47:50;15.20;;;9.37;;
70270;SDS011;57680;54.292;18.598;2023-09-18T08:50:16;15.40;;;8.98;;
70270;SDS011;57680;54.292;18.598;2023-09-18T08:52:43;15.25;;;8.88;;
70270;SDS011;57680;54.292;18.598;2023-09-18T08:55:08;16.23;;;9.40;;
70270;SDS011;57680;54.292;18.598;2023-09-18T08:57:34;13.98;;;8.57;;
70270;SDS011;57680;54.292;18.598;2023-09-18T09:00:00;15.15;;;8.65;;
70270;SDS011;57680;54.292;18.598;2023-09-18T09:02:26;13.13;;;8.67;;
70270;SDS011;57680;54.292;18.598;2023-09-18T09:04:51;13.33;;;8.43;;
70270;SDS011;57680;54.292;18.598;2023-09-18T09:07:17;12.60;;;8.30;;
70270;SDS011;57680;54.292;18.598;2023-09-18T09:09:42;15.60;;;9.50;;
70270;SDS011;57680;54.292;18.598;2023-09-18T09:12:07;13.30;;;9.07;;
70270;SDS011;57680;54.292;18.598;2023-09-18T09:14:33;13.87;;;8.60;;
70270;SDS011;57680;54.292;18.598;2023-09-18T09:16:58;15.70;;;9.40;;
70270;SDS011;57680;54.292;18.598;2023-09-18T09:19:28;14.50;;;9.37;;
70270;SDS011;57680;54.292;18.598;2023-09-18T09:21:58;15.85;;;9.73;;
70270;SDS011;57680;54.292;18.598;2023-09-18T09:24:37;14.88;;;9.10;;
70270;SDS011;57680;54.292;18.598;2023-09-18T09:27:09;15.18;;;8.98;;
70270;SDS011;57680;54.292;18.598;2023-09-18T09:29:35;14.10;;;8.75;;
70270;SDS011;57680;54.292;18.598;2023-09-18T09:32:13;14.83;;;8.73;;
70270;SDS011;57680;54.292;18.598;2023-09-18T09:34:43;14.65;;;8.65;;
70270;SDS011;57680;54.292;18.598;2023-09-18T09:37:09;14.38;;;9.52;;
70270;SDS011;57680;54.292;18.598;2023-09-18T09:39:35;12.77;;;8.10;;
70270;SDS011;57680;54.292;18.598;2023-09-18T09:42:11;16.30;;;8.43;;
70270;SDS011;57680;54.292;18.598;2023-09-18T09:44:36;14.43;;;8.20;;
70270;SDS011;57680;54.292;18.598;2023-09-18T09:47:02;13.27;;;8.93;;
70270;SDS011;57680;54.292;18.598;2023-09-18T09:49:31;14.03;;;7.97;;
70270;SDS011;57680;54.292;18.598;2023-09-18T09:52:17;12.13;;;7.78;;
70270;SDS011;57680;54.292;18.598;2023-09-18T09:54:43;13.35;;;7.88;;
70270;SDS011;57680;54.292;18.598;2023-09-18T09:57:08;12.30;;;7.40;;
70270;SDS011;57680;54.292;18.598;2023-09-18T09:59:34;11.13;;;7.20;;
70270;SDS011;57680;54.292;18.598;2023-09-18T10:01:59;12.27;;;7.50;;
70270;SDS011;57680;54.292;18.598;2023-09-18T10:04:25;12.83;;;7.37;;
70270;SDS011;57680;54.292;18.598;2023-09-18T10:06:58;12.80;;;7.30;;
70270;SDS011;57680;54.292;18.598;2023-09-18T10:09:28;12.85;;;6.95;;
70270;SDS011;57680;54.292;18.598;2023-09-18T10:11:54;13.37;;;7.20;;
70270;SDS011;57680;54.292;18.598;2023-09-18T10:14:31;11.25;;;7.05;;
70270;SDS011;57680;54.292;18.598;2023-09-18T10:16:59;10.87;;;7.17;;
70270;SDS011;57680;54.292;18.598;2023-09-18T10:22:36;9.85;;;6.53;;
70270;SDS011;57680;54.292;18.598;2023-09-18T10:25:24;13.55;;;6.55;;
70270;SDS011;57680;54.292;18.598;2023-09-18T10:27:50;11.40;;;6.68;;
70270;SDS011;57680;54.292;18.598;2023-09-18T10:30:16;11.73;;;6.63;;
70270;SDS011;57680;54.292;18.598;2023-09-18T10:32:42;9.82;;;6.65;;
70270;SDS011;57680;54.292;18.598;2023-09-18T10:35:09;10.30;;;6.40;;
70270;SDS011;57680;54.292;18.598;2023-09-18T10:37:35;8.60;;;6.60;;
70270;SDS011;57680;54.292;18.598;2023-09-18T10:40:01;9.82;;;6.20;;
70270;SDS011;57680;54.292;18.598;2023-09-18T10:42:27;9.10;;;6.10;;
70270;SDS011;57680;54.292;18.598;2023-09-18T10:44:53;10.30;;;6.05;;
70270;SDS011;57680;54.292;18.598;2023-09-18T10:47:19;8.13;;;5.63;;
70270;SDS011;57680;54.292;18.598;2023-09-18T10:49:45;10.82;;;6.22;;
70270;SDS011;57680;54.292;18.598;2023-09-18T10:52:11;8.73;;;5.77;;
70270;SDS011;57680;54.292;18.598;2023-09-18T10:54:37;8.35;;;5.47;;
70270;SDS011;57680;54.292;18.598;2023-09-18T10:57:03;8.48;;;5.15;;
70270;SDS011;57680;54.292;18.598;2023-09-18T10:59:28;9.40;;;5.07;;
70270;SDS011;57680;54.292;18.598;2023-09-18T11:01:55;8.88;;;5.40;;
70270;SDS011;57680;54.292;18.598;2023-09-18T11:04:20;7.67;;;5.10;;
70270;SDS011;57680;54.292;18.598;2023-09-18T11:09:29;8.52;;;5.22;;
70270;SDS011;57680;54.292;18.598;2023-09-18T11:20:23;8.93;;;5.30;;
70270;SDS011;57680;54.292;18.598;2023-09-18T11:22:55;8.00;;;5.13;;
70270;SDS011;57680;54.292;18.598;2023-09-18T11:27:58;7.57;;;5.40;;
70270;SDS011;57680;54.292;18.598;2023-09-18T11:30:23;7.68;;;5.00;;
70270;SDS011;57680;54.292;18.598;2023-09-18T11:32:49;11.03;;;5.60;;
70270;SDS011;57680;54.292;18.598;2023-09-18T11:35:15;10.15;;;5.50;;
70270;SDS011;57680;54.292;18.598;2023-09-18T11:37:41;8.00;;;4.90;;
70270;SDS011;57680;54.292;18.598;2023-09-18T11:40:06;8.47;;;5.37;;
70270;SDS011;57680;54.292;18.598;2023-09-18T11:45:48;9.75;;;5.22;;
70270;SDS011;57680;54.292;18.598;2023-09-18T11:48:15;14.38;;;5.25;;
70270;SDS011;57680;54.292;18.598;2023-09-18T11:50:41;9.80;;;5.10;;
70270;SDS011;57680;54.292;18.598;2023-09-18T11:53:07;8.77;;;5.13;;
70270;SDS011;57680;54.292;18.598;2023-09-18T11:55:33;8.77;;;4.87;;
70270;SDS011;57680;54.292;18.598;2023-09-18T11:57:58;8.10;;;5.07;;
70270;SDS011;57680;54.292;18.598;2023-09-18T12:00:25;8.83;;;4.80;;
70270;SDS011;57680;54.292;18.598;2023-09-18T12:02:50;7.80;;;5.07;;
70270;SDS011;57680;54.292;18.598;2023-09-18T12:05:16;8.07;;;5.20;;
70270;SDS011;57680;54.292;18.598;2023-09-18T12:07:45;10.03;;;5.20;;
70270;SDS011;57680;54.292;18.598;2023-09-18T12:10:11;8.23;;;5.10;;
70270;SDS011;57680;54.292;18.598;2023-09-18T12:12:39;8.48;;;5.32;;
70270;SDS011;57680;54.292;18.598;2023-09-18T12:15:07;8.07;;;5.10;;
70270;SDS011;57680;54.292;18.598;2023-09-18T12:17:35;7.88;;;5.18;;
70270;SDS011;57680;54.292;18.598;2023-09-18T12:20:01;7.80;;;5.10;;
70270;SDS011;57680;54.292;18.598;2023-09-18T12:22:26;9.37;;;5.57;;
70270;SDS011;57680;54.292;18.598;2023-09-18T12:24:53;8.32;;;5.30;;
70270;SDS011;57680;54.292;18.598;2023-09-18T12:27:18;10.40;;;5.40;;
70270;SDS011;57680;54.292;18.598;2023-09-18T12:29:44;7.97;;;5.30;;
70270;SDS011;57680;54.292;18.598;2023-09-18T12:32:09;8.53;;;5.20;;
70270;SDS011;57680;54.292;18.598;2023-09-18T12:34:35;9.38;;;5.43;;
70270;SDS011;57680;54.292;18.598;2023-09-18T12:37:01;8.47;;;5.40;;
70270;SDS011;57680;54.292;18.598;2023-09-18T12:39:31;8.07;;;5.60;;
70270;SDS011;57680;54.292;18.598;2023-09-18T12:41:57;9.43;;;5.15;;
70270;SDS011;57680;54.292;18.598;2023-09-18T12:44:22;8.10;;;5.17;;
70270;SDS011;57680;54.292;18.598;2023-09-18T12:46:48;9.60;;;5.30;;
70270;SDS011;57680;54.292;18.598;2023-09-18T12:49:21;7.07;;;4.85;;
70270;SDS011;57680;54.292;18.598;2023-09-18T12:51:57;8.90;;;5.07;;
70270;SDS011;57680;54.292;18.598;2023-09-18T12:54:39;10.10;;;5.10;;
70270;SDS011;57680;54.292;18.598;2023-09-18T12:57:06;9.02;;;4.90;;
70270;SDS011;57680;54.292;18.598;2023-09-18T12:59:33;8.68;;;5.60;;
70270;SDS011;57680;54.292;18.598;2023-09-18T13:02:00;9.02;;;5.30;;
70270;SDS011;57680;54.292;18.598;2023-09-18T13:04:25;9.17;;;4.90;;
70270;SDS011;57680;54.292;18.598;2023-09-18T13:07:04;30.83;;;6.40;;
70270;SDS011;57680;54.292;18.598;2023-09-18T13:09:31;8.55;;;5.13;;
70270;SDS011;57680;54.292;18.598;2023-09-18T13:11:57;7.33;;;4.70;;
70270;SDS011;57680;54.292;18.598;2023-09-18T13:14:23;8.48;;;5.10;;
70270;SDS011;57680;54.292;18.598;2023-09-18T13:16:49;8.03;;;5.30;;
70270;SDS011;57680;54.292;18.598;2023-09-18T13:19:14;8.98;;;5.22;;
70270;SDS011;57680;54.292;18.598;2023-09-18T13:21:46;8.73;;;5.10;;
70270;SDS011;57680;54.292;18.598;2023-09-18T13:24:27;7.25;;;4.85;;
70270;SDS011;57680;54.292;18.598;2023-09-18T13:26:56;9.48;;;5.32;;
70270;SDS011;57680;54.292;18.598;2023-09-18T13:29:23;9.23;;;4.57;;
70270;SDS011;57680;54.292;18.598;2023-09-18T13:31:48;8.88;;;5.22;;
70270;SDS011;57680;54.292;18.598;2023-09-18T13:34:15;7.95;;;4.70;;
70270;SDS011;57680;54.292;18.598;2023-09-18T13:36:40;10.10;;;5.27;;
70270;SDS011;57680;54.292;18.598;2023-09-18T13:39:06;13.80;;;4.80;;
70270;SDS011;57680;54.292;18.598;2023-09-18T13:41:31;7.13;;;4.90;;
70270;SDS011;57680;54.292;18.598;2023-09-18T13:43:56;8.97;;;5.07;;
70270;SDS011;57680;54.292;18.598;2023-09-18T13:46:21;8.87;;;5.00;;
70270;SDS011;57680;54.292;18.598;2023-09-18T13:48:47;9.50;;;5.10;;
70270;SDS011;57680;54.292;18.598;2023-09-18T13:51:12;7.80;;;5.30;;
70270;SDS011;57680;54.292;18.598;2023-09-18T13:53:38;9.50;;;5.15;;
70270;SDS011;57680;54.292;18.598;2023-09-18T13:56:03;7.33;;;5.00;;
70270;SDS011;57680;54.292;18.598;2023-09-18T13:58:29;10.23;;;5.10;;
70270;SDS011;57680;54.292;18.598;2023-09-18T14:00:54;9.57;;;4.97;;
70270;SDS011;57680;54.292;18.598;2023-09-18T14:03:20;9.65;;;5.30;;
70270;SDS011;57680;54.292;18.598;2023-09-18T14:05:45;7.53;;;5.27;;
70270;SDS011;57680;54.292;18.598;2023-09-18T14:08:10;10.77;;;5.70;;
70270;SDS011;57680;54.292;18.598;2023-09-18T14:10:36;9.73;;;5.27;;
70270;SDS011;57680;54.292;18.598;2023-09-18T14:13:01;9.07;;;5.50;;
70270;SDS011;57680;54.292;18.598;2023-09-18T14:15:26;10.27;;;5.65;;
70270;SDS011;57680;54.292;18.598;2023-09-18T14:17:52;8.10;;;5.13;;
70270;SDS011;57680;54.292;18.598;2023-09-18T14:20:17;10.70;;;5.70;;
70270;SDS011;57680;54.292;18.598;2023-09-18T14:22:42;8.60;;;5.53;;
70270;SDS011;57680;54.292;18.598;2023-09-18T14:25:08;13.00;;;5.70;;
70270;SDS011;57680;54.292;18.598;2023-09-18T14:27:33;10.33;;;6.10;;
70270;SDS011;57680;54.292;18.598;2023-09-18T14:29:59;10.50;;;6.00;;
70270;SDS011;57680;54.292;18.598;2023-09-18T14:32:24;12.43;;;6.40;;